Mitchellville, Arkansas
Current Conditions -  °F | °C
As of 2:53 PM on Saturday 25 Oct 2014 (Local Time) from KLLQ Reporting Station
Clear Clear  
Wind Chill: 82°   Ceiling: Unl
Heat Index: 83°   Visibility: 10mi
Dew Point: 63°   Wind: 8mph
Humidity: 52%   Direction: 260°W
Pressure: 30.06"   Gusts: NA
Location:  33.9283°N, 91.468°W
Report Text: KLLQ 251953Z AUTO 26007KT 10SM CLR 28/17 A3006 RMK AO2 SLP175 T02780172
Loading
Personal Weather Stations






























Interactive Weather Map
Tropical Storm Tracking
New forecast layout! Learn more

10-Day Weather Forecast

Advertisements
Track Severe Weather on mobile